sensor_id;sensor_type;location;lat;lon;timestamp;P1;durP1;ratioP1;P2;durP2;ratioP2
63499;SDS011;49654;51.142;14.924;2023-09-19T00:00:19;6.63;;;3.50;;
63499;SDS011;49654;51.142;14.924;2023-09-19T00:02:51;6.57;;;2.92;;
63499;SDS011;49654;51.142;14.924;2023-09-19T00:05:19;7.65;;;3.35;;
63499;SDS011;49654;51.142;14.924;2023-09-19T00:07:50;6.03;;;2.72;;
63499;SDS011;49654;51.142;14.924;2023-09-19T00:10:19;8.90;;;3.00;;
63499;SDS011;49654;51.142;14.924;2023-09-19T00:12:48;6.85;;;3.00;;
63499;SDS011;49654;51.142;14.924;2023-09-19T00:15:18;5.10;;;2.72;;
63499;SDS011;49654;51.142;14.924;2023-09-19T00:17:45;6.35;;;2.92;;
63499;SDS011;49654;51.142;14.924;2023-09-19T00:20:13;6.03;;;3.03;;
63499;SDS011;49654;51.142;14.924;2023-09-19T00:22:43;6.38;;;3.13;;
63499;SDS011;49654;51.142;14.924;2023-09-19T00:25:11;5.32;;;3.20;;
63499;SDS011;49654;51.142;14.924;2023-09-19T00:27:41;6.22;;;3.25;;
63499;SDS011;49654;51.142;14.924;2023-09-19T00:30:09;7.82;;;4.03;;
63499;SDS011;49654;51.142;14.924;2023-09-19T00:32:41;11.30;;;3.72;;
63499;SDS011;49654;51.142;14.924;2023-09-19T00:35:10;6.50;;;3.65;;
63499;SDS011;49654;51.142;14.924;2023-09-19T00:37:37;6.90;;;3.63;;
63499;SDS011;49654;51.142;14.924;2023-09-19T00:40:05;4.90;;;3.47;;
63499;SDS011;49654;51.142;14.924;2023-09-19T00:42:36;6.22;;;3.58;;
63499;SDS011;49654;51.142;14.924;2023-09-19T00:45:04;8.00;;;4.28;;
63499;SDS011;49654;51.142;14.924;2023-09-19T00:47:35;5.28;;;3.50;;
63499;SDS011;49654;51.142;14.924;2023-09-19T00:50:04;4.57;;;3.65;;
63499;SDS011;49654;51.142;14.924;2023-09-19T00:52:33;8.70;;;4.30;;
63499;SDS011;49654;51.142;14.924;2023-09-19T00:55:02;8.60;;;5.25;;
63499;SDS011;49654;51.142;14.924;2023-09-19T00:57:29;8.98;;;5.78;;
63499;SDS011;49654;51.142;14.924;2023-09-19T00:59:59;8.20;;;6.35;;
63499;SDS011;49654;51.142;14.924;2023-09-19T01:02:31;8.93;;;6.90;;
63499;SDS011;49654;51.142;14.924;2023-09-19T01:04:58;9.70;;;6.82;;
63499;SDS011;49654;51.142;14.924;2023-09-19T01:07:27;9.95;;;7.38;;
63499;SDS011;49654;51.142;14.924;2023-09-19T01:09:56;9.35;;;7.57;;
63499;SDS011;49654;51.142;14.924;2023-09-19T01:15:15;10.30;;;8.20;;
63499;SDS011;49654;51.142;14.924;2023-09-19T01:17:57;9.20;;;8.32;;
63499;SDS011;49654;51.142;14.924;2023-09-19T01:20:33;9.30;;;8.25;;
63499;SDS011;49654;51.142;14.924;2023-09-19T01:23:12;10.70;;;8.68;;
63499;SDS011;49654;51.142;14.924;2023-09-19T01:25:50;11.38;;;8.30;;
63499;SDS011;49654;51.142;14.924;2023-09-19T01:28:34;9.50;;;8.40;;
63499;SDS011;49654;51.142;14.924;2023-09-19T01:31:14;11.23;;;9.32;;
63499;SDS011;49654;51.142;14.924;2023-09-19T01:33:54;12.80;;;8.85;;
63499;SDS011;49654;51.142;14.924;2023-09-19T01:36:31;11.43;;;9.40;;
63499;SDS011;49654;51.142;14.924;2023-09-19T01:39:04;10.30;;;8.93;;
63499;SDS011;49654;51.142;14.924;2023-09-19T01:41:46;12.00;;;8.65;;
63499;SDS011;49654;51.142;14.924;2023-09-19T01:44:22;11.07;;;9.25;;
63499;SDS011;49654;51.142;14.924;2023-09-19T01:46:56;11.43;;;10.23;;
63499;SDS011;49654;51.142;14.924;2023-09-19T01:49:27;11.68;;;10.05;;
63499;SDS011;49654;51.142;14.924;2023-09-19T01:52:04;15.65;;;10.13;;
63499;SDS011;49654;51.142;14.924;2023-09-19T01:54:40;13.25;;;10.60;;
63499;SDS011;49654;51.142;14.924;2023-09-19T01:57:14;15.48;;;10.57;;
63499;SDS011;49654;51.142;14.924;2023-09-19T01:59:45;15.27;;;10.50;;
63499;SDS011;49654;51.142;14.924;2023-09-19T02:02:18;13.15;;;10.57;;
63499;SDS011;49654;51.142;14.924;2023-09-19T02:04:48;13.60;;;10.40;;
63499;SDS011;49654;51.142;14.924;2023-09-19T02:07:16;12.82;;;10.15;;
63499;SDS011;49654;51.142;14.924;2023-09-19T02:09:43;11.65;;;10.55;;
63499;SDS011;49654;51.142;14.924;2023-09-19T02:12:10;11.77;;;9.60;;
63499;SDS011;49654;51.142;14.924;2023-09-19T02:14:37;11.60;;;9.80;;
63499;SDS011;49654;51.142;14.924;2023-09-19T02:17:04;11.07;;;9.95;;
63499;SDS011;49654;51.142;14.924;2023-09-19T02:19:34;11.70;;;9.20;;
63499;SDS011;49654;51.142;14.924;2023-09-19T02:22:02;11.52;;;8.80;;
63499;SDS011;49654;51.142;14.924;2023-09-19T02:24:33;10.10;;;9.05;;
63499;SDS011;49654;51.142;14.924;2023-09-19T02:27:00;9.35;;;8.43;;
63499;SDS011;49654;51.142;14.924;2023-09-19T02:29:29;10.57;;;8.23;;
63499;SDS011;49654;51.142;14.924;2023-09-19T02:31:56;11.50;;;8.23;;
63499;SDS011;49654;51.142;14.924;2023-09-19T02:34:24;11.45;;;8.32;;
63499;SDS011;49654;51.142;14.924;2023-09-19T02:36:52;9.80;;;8.77;;
63499;SDS011;49654;51.142;14.924;2023-09-19T02:39:20;12.98;;;8.55;;
63499;SDS011;49654;51.142;14.924;2023-09-19T02:41:47;11.80;;;9.68;;
63499;SDS011;49654;51.142;14.924;2023-09-19T02:44:15;10.65;;;9.07;;
63499;SDS011;49654;51.142;14.924;2023-09-19T02:46:42;11.10;;;10.00;;
63499;SDS011;49654;51.142;14.924;2023-09-19T02:49:09;11.15;;;9.90;;
63499;SDS011;49654;51.142;14.924;2023-09-19T02:51:36;10.88;;;9.20;;
63499;SDS011;49654;51.142;14.924;2023-09-19T02:54:05;9.77;;;8.80;;
63499;SDS011;49654;51.142;14.924;2023-09-19T02:56:32;8.90;;;8.07;;
63499;SDS011;49654;51.142;14.924;2023-09-19T02:59:01;9.90;;;8.30;;
63499;SDS011;49654;51.142;14.924;2023-09-19T03:01:28;8.93;;;7.55;;
63499;SDS011;49654;51.142;14.924;2023-09-19T03:03:56;9.02;;;8.13;;
63499;SDS011;49654;51.142;14.924;2023-09-19T03:06:23;8.15;;;7.30;;
63499;SDS011;49654;51.142;14.924;2023-09-19T03:08:49;9.57;;;6.82;;
63499;SDS011;49654;51.142;14.924;2023-09-19T03:11:18;7.68;;;6.80;;
63499;SDS011;49654;51.142;14.924;2023-09-19T03:13:50;9.50;;;7.18;;
63499;SDS011;49654;51.142;14.924;2023-09-19T03:16:18;8.23;;;7.38;;
63499;SDS011;49654;51.142;14.924;2023-09-19T03:18:47;10.35;;;7.50;;
63499;SDS011;49654;51.142;14.924;2023-09-19T03:21:15;9.32;;;7.35;;
63499;SDS011;49654;51.142;14.924;2023-09-19T03:23:42;9.68;;;7.80;;
63499;SDS011;49654;51.142;14.924;2023-09-19T03:26:11;10.00;;;7.47;;
63499;SDS011;49654;51.142;14.924;2023-09-19T03:28:41;10.75;;;7.10;;
63499;SDS011;49654;51.142;14.924;2023-09-19T03:31:08;8.90;;;6.88;;
63499;SDS011;49654;51.142;14.924;2023-09-19T03:33:36;6.78;;;5.90;;
63499;SDS011;49654;51.142;14.924;2023-09-19T03:36:03;8.57;;;6.40;;
63499;SDS011;49654;51.142;14.924;2023-09-19T03:38:32;6.80;;;6.05;;
63499;SDS011;49654;51.142;14.924;2023-09-19T03:40:59;7.15;;;6.20;;
63499;SDS011;49654;51.142;14.924;2023-09-19T03:43:27;7.38;;;5.90;;
63499;SDS011;49654;51.142;14.924;2023-09-19T03:45:55;8.27;;;5.95;;
63499;SDS011;49654;51.142;14.924;2023-09-19T03:48:23;6.70;;;5.90;;
63499;SDS011;49654;51.142;14.924;2023-09-19T03:50:50;8.02;;;5.97;;
63499;SDS011;49654;51.142;14.924;2023-09-19T03:53:18;9.85;;;5.80;;
63499;SDS011;49654;51.142;14.924;2023-09-19T03:55:45;7.68;;;6.63;;
63499;SDS011;49654;51.142;14.924;2023-09-19T03:58:12;6.78;;;6.13;;
63499;SDS011;49654;51.142;14.924;2023-09-19T04:00:40;8.70;;;6.07;;
63499;SDS011;49654;51.142;14.924;2023-09-19T04:03:08;8.23;;;5.70;;
63499;SDS011;49654;51.142;14.924;2023-09-19T04:05:44;9.15;;;6.30;;
63499;SDS011;49654;51.142;14.924;2023-09-19T04:08:12;8.27;;;6.60;;
63499;SDS011;49654;51.142;14.924;2023-09-19T04:10:41;7.53;;;6.45;;
63499;SDS011;49654;51.142;14.924;2023-09-19T04:13:08;8.50;;;6.25;;
63499;SDS011;49654;51.142;14.924;2023-09-19T04:15:36;7.18;;;6.43;;
63499;SDS011;49654;51.142;14.924;2023-09-19T04:18:03;7.68;;;6.93;;
63499;SDS011;49654;51.142;14.924;2023-09-19T04:20:32;7.65;;;6.78;;
63499;SDS011;49654;51.142;14.924;2023-09-19T04:22:59;7.78;;;6.60;;
63499;SDS011;49654;51.142;14.924;2023-09-19T04:25:26;9.15;;;6.93;;
63499;SDS011;49654;51.142;14.924;2023-09-19T04:27:54;9.05;;;7.60;;
63499;SDS011;49654;51.142;14.924;2023-09-19T04:30:21;9.18;;;7.63;;
63499;SDS011;49654;51.142;14.924;2023-09-19T04:32:48;8.57;;;7.50;;
63499;SDS011;49654;51.142;14.924;2023-09-19T04:35:16;12.77;;;7.60;;
63499;SDS011;49654;51.142;14.924;2023-09-19T04:37:44;8.45;;;7.57;;
63499;SDS011;49654;51.142;14.924;2023-09-19T04:40:12;8.77;;;7.97;;
63499;SDS011;49654;51.142;14.924;2023-09-19T04:42:42;9.30;;;7.97;;
63499;SDS011;49654;51.142;14.924;2023-09-19T04:45:10;8.57;;;7.78;;
63499;SDS011;49654;51.142;14.924;2023-09-19T04:47:37;14.52;;;7.68;;
63499;SDS011;49654;51.142;14.924;2023-09-19T04:50:06;8.40;;;7.60;;
63499;SDS011;49654;51.142;14.924;2023-09-19T04:52:38;8.93;;;7.57;;
63499;SDS011;49654;51.142;14.924;2023-09-19T04:55:09;17.52;;;7.53;;
63499;SDS011;49654;51.142;14.924;2023-09-19T04:57:39;10.43;;;7.20;;
63499;SDS011;49654;51.142;14.924;2023-09-19T05:00:05;7.75;;;6.97;;
63499;SDS011;49654;51.142;14.924;2023-09-19T05:02:38;8.85;;;6.78;;
63499;SDS011;49654;51.142;14.924;2023-09-19T05:05:06;6.50;;;5.82;;
63499;SDS011;49654;51.142;14.924;2023-09-19T05:07:34;7.30;;;5.70;;
63499;SDS011;49654;51.142;14.924;2023-09-19T05:10:01;7.63;;;5.95;;
63499;SDS011;49654;51.142;14.924;2023-09-19T05:12:32;7.43;;;6.10;;
63499;SDS011;49654;51.142;14.924;2023-09-19T05:15:00;7.40;;;5.63;;
63499;SDS011;49654;51.142;14.924;2023-09-19T05:17:29;6.75;;;6.05;;
63499;SDS011;49654;51.142;14.924;2023-09-19T05:19:56;7.32;;;5.85;;
63499;SDS011;49654;51.142;14.924;2023-09-19T05:22:26;9.07;;;5.68;;
63499;SDS011;49654;51.142;14.924;2023-09-19T05:24:53;5.78;;;5.18;;
63499;SDS011;49654;51.142;14.924;2023-09-19T05:27:20;5.65;;;5.15;;
63499;SDS011;49654;51.142;14.924;2023-09-19T05:29:48;6.07;;;5.05;;
63499;SDS011;49654;51.142;14.924;2023-09-19T05:32:18;5.35;;;4.40;;
63499;SDS011;49654;51.142;14.924;2023-09-19T05:34:46;5.82;;;4.57;;
63499;SDS011;49654;51.142;14.924;2023-09-19T05:37:13;7.05;;;4.72;;
63499;SDS011;49654;51.142;14.924;2023-09-19T05:39:42;5.30;;;4.57;;
63499;SDS011;49654;51.142;14.924;2023-09-19T05:42:09;4.22;;;3.78;;
63499;SDS011;49654;51.142;14.924;2023-09-19T05:44:36;6.15;;;3.78;;
63499;SDS011;49654;51.142;14.924;2023-09-19T05:47:05;8.25;;;4.10;;
63499;SDS011;49654;51.142;14.924;2023-09-19T05:49:34;15.18;;;4.55;;
63499;SDS011;49654;51.142;14.924;2023-09-19T05:52:04;13.73;;;4.68;;
63499;SDS011;49654;51.142;14.924;2023-09-19T05:54:31;11.13;;;5.35;;
63499;SDS011;49654;51.142;14.924;2023-09-19T05:56:59;11.23;;;4.82;;
63499;SDS011;49654;51.142;14.924;2023-09-19T05:59:27;8.45;;;3.30;;
63499;SDS011;49654;51.142;14.924;2023-09-19T06:01:54;3.80;;;3.40;;
63499;SDS011;49654;51.142;14.924;2023-09-19T06:04:22;5.28;;;3.13;;
63499;SDS011;49654;51.142;14.924;2023-09-19T06:06:50;5.07;;;2.97;;
63499;SDS011;49654;51.142;14.924;2023-09-19T06:09:17;5.97;;;3.20;;
63499;SDS011;49654;51.142;14.924;2023-09-19T06:11:44;4.22;;;2.92;;
63499;SDS011;49654;51.142;14.924;2023-09-19T06:14:12;4.15;;;2.72;;
63499;SDS011;49654;51.142;14.924;2023-09-19T06:16:39;3.40;;;2.60;;
63499;SDS011;49654;51.142;14.924;2023-09-19T06:19:08;3.45;;;1.98;;
63499;SDS011;49654;51.142;14.924;2023-09-19T06:21:37;4.30;;;2.50;;
63499;SDS011;49654;51.142;14.924;2023-09-19T06:24:04;4.40;;;2.28;;
63499;SDS011;49654;51.142;14.924;2023-09-19T06:26:32;4.45;;;2.42;;
63499;SDS011;49654;51.142;14.924;2023-09-19T06:28:59;3.22;;;1.92;;
63499;SDS011;49654;51.142;14.924;2023-09-19T06:31:26;2.33;;;1.88;;
63499;SDS011;49654;51.142;14.924;2023-09-19T06:33:53;2.33;;;1.73;;
63499;SDS011;49654;51.142;14.924;2023-09-19T06:36:20;2.38;;;2.05;;
63499;SDS011;49654;51.142;14.924;2023-09-19T06:38:49;3.35;;;2.10;;
63499;SDS011;49654;51.142;14.924;2023-09-19T06:41:17;4.93;;;2.00;;
63499;SDS011;49654;51.142;14.924;2023-09-19T06:43:45;4.05;;;1.77;;
63499;SDS011;49654;51.142;14.924;2023-09-19T06:46:12;2.80;;;1.83;;
63499;SDS011;49654;51.142;14.924;2023-09-19T06:48:39;3.60;;;2.10;;
63499;SDS011;49654;51.142;14.924;2023-09-19T06:51:06;2.28;;;1.65;;
63499;SDS011;49654;51.142;14.924;2023-09-19T06:53:33;1.95;;;1.70;;
63499;SDS011;49654;51.142;14.924;2023-09-19T06:56:03;3.30;;;1.70;;
63499;SDS011;49654;51.142;14.924;2023-09-19T06:58:31;3.63;;;1.90;;
63499;SDS011;49654;51.142;14.924;2023-09-19T07:00:58;3.05;;;1.95;;
63499;SDS011;49654;51.142;14.924;2023-09-19T07:03:25;2.80;;;1.90;;
63499;SDS011;49654;51.142;14.924;2023-09-19T07:05:54;2.45;;;1.60;;
63499;SDS011;49654;51.142;14.924;2023-09-19T07:08:21;4.22;;;1.80;;
63499;SDS011;49654;51.142;14.924;2023-09-19T07:10:48;3.58;;;2.08;;
63499;SDS011;49654;51.142;14.924;2023-09-19T07:13:19;2.67;;;2.05;;
63499;SDS011;49654;51.142;14.924;2023-09-19T07:15:46;3.03;;;1.88;;
63499;SDS011;49654;51.142;14.924;2023-09-19T07:18:15;2.50;;;1.50;;
63499;SDS011;49654;51.142;14.924;2023-09-19T07:20:43;2.47;;;1.60;;
63499;SDS011;49654;51.142;14.924;2023-09-19T07:23:14;2.08;;;1.60;;
63499;SDS011;49654;51.142;14.924;2023-09-19T07:25:42;4.15;;;2.03;;
63499;SDS011;49654;51.142;14.924;2023-09-19T07:28:09;2.38;;;1.73;;
63499;SDS011;49654;51.142;14.924;2023-09-19T07:30:37;2.83;;;1.60;;
63499;SDS011;49654;51.142;14.924;2023-09-19T07:33:05;1.85;;;1.48;;
63499;SDS011;49654;51.142;14.924;2023-09-19T07:35:32;2.60;;;1.65;;
63499;SDS011;49654;51.142;14.924;2023-09-19T07:37:59;2.38;;;1.40;;
63499;SDS011;49654;51.142;14.924;2023-09-19T07:40:28;3.15;;;1.58;;
63499;SDS011;49654;51.142;14.924;2023-09-19T07:42:55;1.75;;;1.38;;
63499;SDS011;49654;51.142;14.924;2023-09-19T07:45:22;3.15;;;1.33;;
63499;SDS011;49654;51.142;14.924;2023-09-19T07:47:52;1.88;;;1.40;;
63499;SDS011;49654;51.142;14.924;2023-09-19T07:50:19;2.75;;;1.30;;
63499;SDS011;49654;51.142;14.924;2023-09-19T07:52:46;2.58;;;1.70;;
63499;SDS011;49654;51.142;14.924;2023-09-19T07:55:16;4.10;;;1.70;;
63499;SDS011;49654;51.142;14.924;2023-09-19T07:57:45;3.08;;;1.80;;
63499;SDS011;49654;51.142;14.924;2023-09-19T08:00:12;2.97;;;1.50;;
63499;SDS011;49654;51.142;14.924;2023-09-19T08:02:40;4.43;;;1.80;;
63499;SDS011;49654;51.142;14.924;2023-09-19T08:05:10;3.60;;;1.30;;
63499;SDS011;49654;51.142;14.924;2023-09-19T08:07:41;8.35;;;1.85;;
63499;SDS011;49654;51.142;14.924;2023-09-19T08:10:09;3.33;;;1.85;;
63499;SDS011;49654;51.142;14.924;2023-09-19T08:12:38;2.95;;;1.50;;
63499;SDS011;49654;51.142;14.924;2023-09-19T08:15:12;2.80;;;1.38;;
63499;SDS011;49654;51.142;14.924;2023-09-19T08:17:39;1.88;;;1.50;;
63499;SDS011;49654;51.142;14.924;2023-09-19T08:20:07;3.35;;;1.50;;
63499;SDS011;49654;51.142;14.924;2023-09-19T08:22:44;3.28;;;1.60;;
63499;SDS011;49654;51.142;14.924;2023-09-19T08:25:14;2.63;;;1.42;;
63499;SDS011;49654;51.142;14.924;2023-09-19T08:27:44;2.40;;;1.52;;
63499;SDS011;49654;51.142;14.924;2023-09-19T08:30:14;1.92;;;1.30;;
63499;SDS011;49654;51.142;14.924;2023-09-19T08:32:41;3.13;;;1.50;;
63499;SDS011;49654;51.142;14.924;2023-09-19T08:35:09;2.65;;;1.52;;
63499;SDS011;49654;51.142;14.924;2023-09-19T08:37:36;4.18;;;1.55;;
63499;SDS011;49654;51.142;14.924;2023-09-19T08:40:05;4.15;;;1.30;;
63499;SDS011;49654;51.142;14.924;2023-09-19T08:42:47;2.10;;;1.38;;
63499;SDS011;49654;51.142;14.924;2023-09-19T08:45:15;2.97;;;1.52;;
63499;SDS011;49654;51.142;14.924;2023-09-19T08:47:45;1.50;;;1.40;;
63499;SDS011;49654;51.142;14.924;2023-09-19T08:50:16;1.83;;;1.27;;
63499;SDS011;49654;51.142;14.924;2023-09-19T08:52:46;2.72;;;1.60;;
63499;SDS011;49654;51.142;14.924;2023-09-19T08:55:18;2.90;;;1.35;;
63499;SDS011;49654;51.142;14.924;2023-09-19T08:57:48;2.85;;;1.50;;
63499;SDS011;49654;51.142;14.924;2023-09-19T09:00:16;3.33;;;1.50;;
63499;SDS011;49654;51.142;14.924;2023-09-19T09:02:46;2.33;;;1.48;;
63499;SDS011;49654;51.142;14.924;2023-09-19T09:05:15;3.38;;;1.10;;
63499;SDS011;49654;51.142;14.924;2023-09-19T09:07:48;2.08;;;1.15;;
63499;SDS011;49654;51.142;14.924;2023-09-19T09:10:18;3.38;;;1.40;;
63499;SDS011;49654;51.142;14.924;2023-09-19T09:12:48;2.60;;;1.23;;
63499;SDS011;49654;51.142;14.924;2023-09-19T09:15:18;2.38;;;1.33;;
63499;SDS011;49654;51.142;14.924;2023-09-19T09:17:46;2.50;;;1.20;;
63499;SDS011;49654;51.142;14.924;2023-09-19T09:20:16;7.47;;;1.73;;
63499;SDS011;49654;51.142;14.924;2023-09-19T09:22:50;1.85;;;1.30;;
63499;SDS011;49654;51.142;14.924;2023-09-19T09:25:19;2.38;;;1.17;;
63499;SDS011;49654;51.142;14.924;2023-09-19T09:27:58;1.83;;;1.23;;
63499;SDS011;49654;51.142;14.924;2023-09-19T09:30:32;3.22;;;1.27;;
63499;SDS011;49654;51.142;14.924;2023-09-19T09:33:09;2.13;;;1.45;;
63499;SDS011;49654;51.142;14.924;2023-09-19T09:35:37;4.22;;;1.70;;
63499;SDS011;49654;51.142;14.924;2023-09-19T09:38:19;4.55;;;1.92;;
63499;SDS011;49654;51.142;14.924;2023-09-19T09:40:48;1.50;;;1.08;;
63499;SDS011;49654;51.142;14.924;2023-09-19T09:43:29;2.53;;;1.33;;
63499;SDS011;49654;51.142;14.924;2023-09-19T09:46:11;3.33;;;1.50;;
63499;SDS011;49654;51.142;14.924;2023-09-19T09:48:57;2.50;;;1.40;;
63499;SDS011;49654;51.142;14.924;2023-09-19T09:51:43;2.67;;;1.23;;
63499;SDS011;49654;51.142;14.924;2023-09-19T09:54:23;2.42;;;1.38;;
63499;SDS011;49654;51.142;14.924;2023-09-19T09:56:55;1.90;;;1.35;;
63499;SDS011;49654;51.142;14.924;2023-09-19T10:02:12;2.38;;;1.30;;
63499;SDS011;49654;51.142;14.924;2023-09-19T10:04:40;1.77;;;1.45;;
63499;SDS011;49654;51.142;14.924;2023-09-19T10:07:24;2.95;;;1.30;;
63499;SDS011;49654;51.142;14.924;2023-09-19T10:09:53;2.25;;;1.30;;
63499;SDS011;49654;51.142;14.924;2023-09-19T10:12:26;1.75;;;1.30;;
63499;SDS011;49654;51.142;14.924;2023-09-19T10:14:55;2.53;;;1.42;;
63499;SDS011;49654;51.142;14.924;2023-09-19T10:17:27;1.50;;;1.20;;
63499;SDS011;49654;51.142;14.924;2023-09-19T10:19:56;2.60;;;1.40;;
63499;SDS011;49654;51.142;14.924;2023-09-19T10:22:24;5.32;;;1.50;;
63499;SDS011;49654;51.142;14.924;2023-09-19T10:24:52;2.03;;;1.50;;
63499;SDS011;49654;51.142;14.924;2023-09-19T10:27:21;2.25;;;1.35;;
63499;SDS011;49654;51.142;14.924;2023-09-19T10:29:53;2.15;;;1.20;;
63499;SDS011;49654;51.142;14.924;2023-09-19T10:32:20;2.10;;;1.30;;
63499;SDS011;49654;51.142;14.924;2023-09-19T10:34:49;2.30;;;1.30;;
63499;SDS011;49654;51.142;14.924;2023-09-19T10:37:16;2.83;;;1.50;;
63499;SDS011;49654;51.142;14.924;2023-09-19T10:39:45;2.45;;;1.48;;
63499;SDS011;49654;51.142;14.924;2023-09-19T10:42:14;2.10;;;1.35;;
63499;SDS011;49654;51.142;14.924;2023-09-19T10:44:46;2.38;;;1.40;;
63499;SDS011;49654;51.142;14.924;2023-09-19T10:47:20;3.42;;;1.42;;
63499;SDS011;49654;51.142;14.924;2023-09-19T10:49:49;3.15;;;1.30;;
63499;SDS011;49654;51.142;14.924;2023-09-19T10:52:18;1.95;;;1.30;;
63499;SDS011;49654;51.142;14.924;2023-09-19T10:54:51;3.03;;;1.45;;
63499;SDS011;49654;51.142;14.924;2023-09-19T10:57:23;2.38;;;1.40;;
63499;SDS011;49654;51.142;14.924;2023-09-19T11:00:03;2.13;;;1.30;;
63499;SDS011;49654;51.142;14.924;2023-09-19T11:06:01;1.70;;;1.25;;
63499;SDS011;49654;51.142;14.924;2023-09-19T11:11:41;1.33;;;1.13;;
63499;SDS011;49654;51.142;14.924;2023-09-19T11:14:28;2.45;;;1.40;;
63499;SDS011;49654;51.142;14.924;2023-09-19T11:23:17;2.05;;;1.30;;
63499;SDS011;49654;51.142;14.924;2023-09-19T11:25:44;2.75;;;1.40;;
63499;SDS011;49654;51.142;14.924;2023-09-19T11:28:28;1.60;;;1.08;;
63499;SDS011;49654;51.142;14.924;2023-09-19T11:34:37;2.08;;;1.15;;
63499;SDS011;49654;51.142;14.924;2023-09-19T11:37:25;1.42;;;1.20;;
63499;SDS011;49654;51.142;14.924;2023-09-19T11:40:28;1.45;;;0.98;;
63499;SDS011;49654;51.142;14.924;2023-09-19T11:42:56;1.10;;;1.00;;
63499;SDS011;49654;51.142;14.924;2023-09-19T11:48:27;2.75;;;1.10;;
63499;SDS011;49654;51.142;14.924;2023-09-19T11:50:56;2.65;;;1.30;;
63499;SDS011;49654;51.142;14.924;2023-09-19T11:53:26;1.52;;;1.08;;
63499;SDS011;49654;51.142;14.924;2023-09-19T11:55:58;3.80;;;1.20;;
63499;SDS011;49654;51.142;14.924;2023-09-19T11:58:27;1.30;;;0.98;;
63499;SDS011;49654;51.142;14.924;2023-09-19T12:00:55;1.75;;;1.05;;
63499;SDS011;49654;51.142;14.924;2023-09-19T12:03:24;2.03;;;1.20;;
63499;SDS011;49654;51.142;14.924;2023-09-19T12:05:56;2.03;;;1.00;;
63499;SDS011;49654;51.142;14.924;2023-09-19T12:08:26;1.80;;;1.17;;
63499;SDS011;49654;51.142;14.924;2023-09-19T12:10:53;2.95;;;1.25;;
63499;SDS011;49654;51.142;14.924;2023-09-19T12:13:20;1.83;;;1.20;;
63499;SDS011;49654;51.142;14.924;2023-09-19T12:15:47;2.28;;;1.10;;
63499;SDS011;49654;51.142;14.924;2023-09-19T12:18:27;3.47;;;1.58;;
63499;SDS011;49654;51.142;14.924;2023-09-19T12:20:55;1.48;;;1.05;;
63499;SDS011;49654;51.142;14.924;2023-09-19T12:23:23;2.83;;;1.35;;
63499;SDS011;49654;51.142;14.924;2023-09-19T12:25:52;3.88;;;1.40;;
63499;SDS011;49654;51.142;14.924;2023-09-19T12:28:22;2.13;;;1.30;;
63499;SDS011;49654;51.142;14.924;2023-09-19T12:30:55;3.85;;;1.10;;
63499;SDS011;49654;51.142;14.924;2023-09-19T12:33:23;3.05;;;1.17;;
63499;SDS011;49654;51.142;14.924;2023-09-19T12:35:51;6.47;;;1.88;;
63499;SDS011;49654;51.142;14.924;2023-09-19T12:38:23;2.97;;;1.38;;
63499;SDS011;49654;51.142;14.924;2023-09-19T12:40:55;2.30;;;1.30;;
63499;SDS011;49654;51.142;14.924;2023-09-19T12:43:24;1.60;;;1.20;;
63499;SDS011;49654;51.142;14.924;2023-09-19T12:45:52;3.08;;;1.60;;
63499;SDS011;49654;51.142;14.924;2023-09-19T12:48:20;1.88;;;1.25;;
63499;SDS011;49654;51.142;14.924;2023-09-19T12:51:04;2.63;;;1.20;;
63499;SDS011;49654;51.142;14.924;2023-09-19T12:53:33;1.50;;;1.20;;
63499;SDS011;49654;51.142;14.924;2023-09-19T12:56:07;2.38;;;1.20;;
63499;SDS011;49654;51.142;14.924;2023-09-19T12:58:36;1.40;;;1.30;;
63499;SDS011;49654;51.142;14.924;2023-09-19T13:01:15;1.95;;;1.40;;
63499;SDS011;49654;51.142;14.924;2023-09-19T13:03:43;1.38;;;1.20;;
63499;SDS011;49654;51.142;14.924;2023-09-19T13:06:10;2.03;;;1.40;;
63499;SDS011;49654;51.142;14.924;2023-09-19T13:08:39;3.03;;;1.35;;
63499;SDS011;49654;51.142;14.924;2023-09-19T13:11:09;2.72;;;1.40;;
63499;SDS011;49654;51.142;14.924;2023-09-19T13:13:39;2.45;;;1.50;;
63499;SDS011;49654;51.142;14.924;2023-09-19T13:16:07;2.35;;;1.40;;
63499;SDS011;49654;51.142;14.924;2023-09-19T13:18:41;4.03;;;1.45;;
63499;SDS011;49654;51.142;14.924;2023-09-19T13:21:10;1.92;;;1.23;;
63499;SDS011;49654;51.142;14.924;2023-09-19T13:23:41;2.03;;;1.45;;
63499;SDS011;49654;51.142;14.924;2023-09-19T13:26:11;1.88;;;1.52;;
63499;SDS011;49654;51.142;14.924;2023-09-19T13:28:38;1.58;;;1.38;;
63499;SDS011;49654;51.142;14.924;2023-09-19T13:31:09;3.35;;;1.70;;
63499;SDS011;49654;51.142;14.924;2023-09-19T13:33:42;3.67;;;1.65;;
63499;SDS011;49654;51.142;14.924;2023-09-19T13:36:09;2.35;;;1.40;;
63499;SDS011;49654;51.142;14.924;2023-09-19T13:38:37;4.32;;;1.60;;
63499;SDS011;49654;51.142;14.924;2023-09-19T13:41:04;2.85;;;1.70;;
63499;SDS011;49654;51.142;14.924;2023-09-19T13:43:33;3.90;;;1.65;;
63499;SDS011;49654;51.142;14.924;2023-09-19T13:46:00;4.72;;;1.50;;
63499;SDS011;49654;51.142;14.924;2023-09-19T13:48:28;2.05;;;1.40;;
63499;SDS011;49654;51.142;14.924;2023-09-19T13:50:56;3.65;;;1.52;;
63499;SDS011;49654;51.142;14.924;2023-09-19T13:53:23;2.55;;;1.52;;
63499;SDS011;49654;51.142;14.924;2023-09-19T13:55:51;2.17;;;1.55;;
63499;SDS011;49654;51.142;14.924;2023-09-19T13:58:18;1.77;;;1.40;;
63499;SDS011;49654;51.142;14.924;2023-09-19T14:00:48;1.73;;;1.50;;
63499;SDS011;49654;51.142;14.924;2023-09-19T14:03:15;3.60;;;1.60;;
63499;SDS011;49654;51.142;14.924;2023-09-19T14:05:42;3.33;;;1.40;;
63499;SDS011;49654;51.142;14.924;2023-09-19T14:08:09;2.30;;;1.60;;
63499;SDS011;49654;51.142;14.924;2023-09-19T14:10:38;3.08;;;1.52;;
63499;SDS011;49654;51.142;14.924;2023-09-19T14:13:05;3.03;;;1.48;;
63499;SDS011;49654;51.142;14.924;2023-09-19T14:15:32;1.52;;;1.40;;
63499;SDS011;49654;51.142;14.924;2023-09-19T14:18:01;2.50;;;1.65;;
63499;SDS011;49654;51.142;14.924;2023-09-19T14:20:29;3.10;;;1.70;;
63499;SDS011;49654;51.142;14.924;2023-09-19T14:22:56;2.30;;;1.70;;
63499;SDS011;49654;51.142;14.924;2023-09-19T14:25:24;2.30;;;1.70;;
63499;SDS011;49654;51.142;14.924;2023-09-19T14:27:51;2.40;;;1.50;;
63499;SDS011;49654;51.142;14.924;2023-09-19T14:30:18;2.05;;;1.60;;
63499;SDS011;49654;51.142;14.924;2023-09-19T14:32:46;3.55;;;1.95;;
63499;SDS011;49654;51.142;14.924;2023-09-19T14:35:14;3.25;;;1.75;;
63499;SDS011;49654;51.142;14.924;2023-09-19T14:37:42;2.55;;;1.80;;
63499;SDS011;49654;51.142;14.924;2023-09-19T14:40:11;1.98;;;1.70;;
63499;SDS011;49654;51.142;14.924;2023-09-19T14:42:41;4.25;;;2.10;;
63499;SDS011;49654;51.142;14.924;2023-09-19T14:45:09;2.70;;;1.65;;
63499;SDS011;49654;51.142;14.924;2023-09-19T14:47:37;2.25;;;1.75;;
63499;SDS011;49654;51.142;14.924;2023-09-19T14:50:05;3.38;;;1.70;;
63499;SDS011;49654;51.142;14.924;2023-09-19T14:52:34;2.30;;;1.52;;
63499;SDS011;49654;51.142;14.924;2023-09-19T14:55:02;2.20;;;1.50;;
63499;SDS011;49654;51.142;14.924;2023-09-19T14:57:30;4.03;;;1.70;;
63499;SDS011;49654;51.142;14.924;2023-09-19T14:59:57;4.35;;;1.80;;
63499;SDS011;49654;51.142;14.924;2023-09-19T15:02:26;3.88;;;1.80;;
63499;SDS011;49654;51.142;14.924;2023-09-19T15:04:53;3.80;;;1.80;;
63499;SDS011;49654;51.142;14.924;2023-09-19T15:07:20;4.75;;;2.05;;
63499;SDS011;49654;51.142;14.924;2023-09-19T15:09:48;2.70;;;1.90;;
63499;SDS011;49654;51.142;14.924;2023-09-19T15:12:15;2.10;;;1.70;;